Terminal Aerodrome Forecast
Issued by NWS

Home | Current Version | Previous Version | Text Only | Print | Product List | Glossary On
Versions: 1 2 3 4 5 6 7 8 9 10 11 12 13 14 15 16 17 18 19 20 21 22 23 24 25
000
FTUS44 KEWX 272300
TAFSSF
TAF
KSSF 272320Z 2800/2824 04013KT P6SM OVC015
     FM280300 05009KT 6SM -DZ BR BKN009 OVC015
     FM281400 05008KT 3SM -DZ BR OVC005
     FM282200 07009KT 1SM BR OVC004=

USA.gov is the U.S. government's official web portal to all federal, state and local government web resources and services.